Equality, Alabama
Current Conditions -  °F | °C
As of 11:55 AM on Saturday 25 Oct 2014 (Local Time) from KALX Reporting Station
Clear Clear  
Wind Chill: 23°   Ceiling: Unl
Heat Index: 23°   Visibility: 10mi
Dew Point: 12°   Wind: 10mph
Humidity: 50%   Direction: 320°NW
Pressure: 30.09"   Gusts: NA
Location:  32.76°N, 86.1°W
Report Text: KALX 251655Z AUTO 32009KT 10SM CLR 23/12 A3009 RMK AO2 T02310121
Loading
Personal Weather Stations






























Interactive Weather Map
Tropical Storm Tracking
New forecast layout! Learn more

10-Day Weather Forecast

Advertisements
Track Severe Weather on mobile